FZAA/FIH METAR and TAF weather

Enter ICAO airport designator
Station Type Date Time Source
FZAA METAR 2018/12/12 23:00 UTC NOAA

FZAA 122300Z 29004KT 9999 SCT016 BKN100 26/22 Q1014 NOSIG


Station Type Date Time Source
FZAA Decoded METAR 2018/12/12 23:00 UTC NOAA

Kinshasa / N'Djili, Congo, Democratic Republic of the (FZAA) 04-23S 015-26E 312M
Dec 12, 2018 - 06:00 PM EST / 2018.12.12 2300 UTC
Wind: from the WNW (290 degrees) at 5 MPH (4 KT):0
Visibility: greater than 7 mile(s):0
Sky conditions: mostly cloudy
Temperature: 78 F (26 C)
Dew Point: 71 F (22 C)
Relative Humidity: 78%
Pressure (altimeter): 29.94 in. Hg (1014 hPa)
ob: FZAA 122300Z 29004KT 9999 SCT016 BKN100 26/22 Q1014 NOSIG
cycle: 23

Station Type Date Time Source
FZAA TAF 2018/12/12 18:45 UTC NOAA

TAF TAF FZAA 121700Z 1218/1324 27006KT 9000 FEW020 FEW028CB PROB30
TEMPO 1219/1222 TS PROB30
TEMPO 1224/1304 4000 TSRA
BECMG 1305/1307 BKN018
BECMG 1310/1312 32012KT SCT024 FEW030CB
TEMPO 1315/1319 TS
BECMG 1320/1322 18004KT FEW016


Example: see airport list